createdAt,value
2023-05-19T00:02:33.945Z,98396.30
2023-05-19T00:05:07.423Z,98395.33
2023-05-19T00:07:40.413Z,98393.24
2023-05-19T00:10:15.185Z,98391.52
2023-05-19T00:12:47.793Z,98391.67
2023-05-19T00:15:20.183Z,98389.04
2023-05-19T00:17:52.438Z,98389.26
2023-05-19T00:20:23.794Z,98388.95
2023-05-19T00:22:54.774Z,98388.81
2023-05-19T00:25:26.087Z,98385.64
2023-05-19T00:27:59.268Z,98383.85
2023-05-19T00:30:30.924Z,98383.86
2023-05-19T00:33:02.650Z,98383.70
2023-05-19T00:35:33.956Z,98381.44
2023-05-19T00:38:04.945Z,98380.81
2023-05-19T00:40:35.455Z,98379.32
2023-05-19T00:43:08.431Z,98374.92
2023-05-19T00:45:39.673Z,98374.01
2023-05-19T00:48:10.920Z,98379.27
2023-05-19T00:50:42.810Z,98378.56
2023-05-19T00:53:16.021Z,98382.36
2023-05-19T00:55:48.946Z,98379.48
2023-05-19T00:58:20.308Z,98379.35
2023-05-19T01:00:51.632Z,98379.30
2023-05-19T01:03:23.333Z,98380.42
2023-05-19T01:05:54.784Z,98381.34
2023-05-19T01:08:26.225Z,98381.34
2023-05-19T01:10:57.255Z,98381.83
2023-05-19T01:13:28.994Z,98379.81
2023-05-19T01:16:09.077Z,98380.26
2023-05-19T01:18:48.735Z,98377.48
2023-05-19T01:21:44.548Z,98378.35
2023-05-19T01:24:35.355Z,98378.84
2023-05-19T01:27:42.461Z,98374.98
2023-05-19T01:30:34.915Z,98379.20
2023-05-19T01:33:14.489Z,98378.69
2023-05-19T01:35:47.170Z,98378.80
2023-05-19T01:38:20.765Z,98383.58
2023-05-19T01:40:53.454Z,98385.89
2023-05-19T01:43:27.650Z,98384.92
2023-05-19T01:45:59.816Z,98389.52
2023-05-19T01:48:31.742Z,98388.45
2023-05-19T01:51:02.666Z,98384.09
2023-05-19T01:53:34.124Z,98386.91
2023-05-19T01:56:06.776Z,98386.98
2023-05-19T01:58:45.267Z,98384.79
2023-05-19T02:01:26.744Z,98382.02
2023-05-19T02:04:13.216Z,98382.89
2023-05-19T02:06:49.568Z,98384.89
2023-05-19T02:09:24.613Z,98380.88
2023-05-19T02:12:00.421Z,98386.16
2023-05-19T02:14:35.337Z,98388.92
2023-05-19T02:17:07.516Z,98390.41
2023-05-19T02:19:40.523Z,98387.74
2023-05-19T02:22:11.769Z,98386.88
2023-05-19T02:24:44.521Z,98388.92
2023-05-19T02:27:16.074Z,98387.03
2023-05-19T02:29:47.164Z,98384.17
2023-05-19T02:32:19.229Z,98379.30
2023-05-19T02:34:50.388Z,98381.46
2023-05-19T02:37:24.027Z,98374.25
2023-05-19T02:39:55.464Z,98371.09
2023-05-19T02:42:26.701Z,98366.65
2023-05-19T02:44:58.405Z,98364.45
2023-05-19T02:47:30.063Z,98361.95
2023-05-19T02:50:01.303Z,98363.61
2023-05-19T02:52:32.525Z,98359.55
2023-05-19T02:55:01.984Z,98360.98
2023-05-19T02:57:34.299Z,98359.81
2023-05-19T03:00:06.012Z,98356.89
2023-05-19T03:02:37.582Z,98361.09
2023-05-19T03:05:11.217Z,98360.42
2023-05-19T03:07:42.211Z,98355.80
2023-05-19T03:10:11.998Z,98349.60
2023-05-19T03:12:42.875Z,98348.64
2023-05-19T03:15:15.106Z,98349.36
2023-05-19T03:17:46.137Z,98349.27
2023-05-19T03:20:17.386Z,98352.70
2023-05-19T03:22:48.448Z,98349.17
2023-05-19T03:25:19.738Z,98345.25
2023-05-19T03:27:50.808Z,98344.99
2023-05-19T03:30:22.388Z,98346.68
2023-05-19T03:32:53.542Z,98343.75
2023-05-19T03:35:25.250Z,98340.83
2023-05-19T03:37:56.295Z,98337.54
2023-05-19T03:40:27.470Z,98338.61
2023-05-19T03:42:58.584Z,98339.27
2023-05-19T03:45:29.811Z,98336.61
2023-05-19T03:48:01.058Z,98336.55
2023-05-19T03:50:34.191Z,98336.88
2023-05-19T03:53:06.362Z,98334.62
2023-05-19T03:55:37.783Z,98330.35
2023-05-19T03:58:08.806Z,98329.87
2023-05-19T04:00:39.799Z,98325.06
2023-05-19T04:03:09.394Z,98321.67
2023-05-19T04:05:40.472Z,98317.14
2023-05-19T04:08:11.518Z,98316.30
2023-05-19T04:10:42.719Z,98316.46
2023-05-19T04:13:14.027Z,98315.80
2023-05-19T04:15:43.510Z,98315.97
2023-05-19T04:18:14.580Z,98315.95
2023-05-19T04:20:46.081Z,98318.50
2023-05-19T04:23:17.167Z,98324.83
2023-05-19T04:25:49.759Z,98330.18
2023-05-19T04:28:21.714Z,98331.86
2023-05-19T04:30:52.894Z,98331.89
2023-05-19T04:33:24.861Z,98332.44
2023-05-19T04:35:55.897Z,98332.20
2023-05-19T04:38:30.137Z,98334.69
2023-05-19T04:41:01.892Z,98337.11
2023-05-19T04:43:32.975Z,98337.41
2023-05-19T04:46:02.317Z,98340.91
2023-05-19T04:48:33.522Z,98342.30
2023-05-19T04:51:05.327Z,98344.57
2023-05-19T04:53:36.739Z,98344.16
2023-05-19T04:56:08.680Z,98344.92
2023-05-19T04:58:41.910Z,98345.16
2023-05-19T05:01:15.939Z,98341.65
2023-05-19T05:03:47.171Z,98343.52
2023-05-19T05:06:16.603Z,98340.91
2023-05-19T05:08:47.725Z,98340.05
2023-05-19T05:11:19.741Z,98340.52
2023-05-19T05:13:52.003Z,98344.40
2023-05-19T05:16:24.374Z,98345.14
2023-05-19T05:18:57.599Z,98345.98
2023-05-19T05:21:29.727Z,98347.28
2023-05-19T05:24:01.854Z,98341.71
2023-05-19T05:26:34.935Z,98336.15
2023-05-19T05:29:06.554Z,98332.17
2023-05-19T05:31:38.138Z,98330.81
2023-05-19T05:34:13.225Z,98328.92
2023-05-19T05:36:44.277Z,98329.73
2023-05-19T05:39:13.900Z,98330.08
2023-05-19T05:41:44.877Z,98335.02
2023-05-19T05:44:15.910Z,98340.59
2023-05-19T05:46:48.475Z,98343.61
2023-05-19T05:49:20.544Z,98344.61
2023-05-19T05:52:04.849Z,98344.30
2023-05-19T05:54:37.538Z,98344.27
2023-05-19T05:57:10.176Z,98339.38
2023-05-19T05:59:41.745Z,98336.11
2023-05-19T06:02:13.144Z,98335.00
2023-05-19T06:04:45.195Z,98334.33
2023-05-19T06:07:16.309Z,98339.39
2023-05-19T06:09:47.402Z,98335.30
2023-05-19T06:12:18.502Z,98335.77
2023-05-19T06:14:49.750Z,98336.27
2023-05-19T06:17:20.681Z,98330.41
2023-05-19T06:19:51.850Z,98334.68
2023-05-19T06:22:23.104Z,98336.20
2023-05-19T06:24:54.169Z,98338.98
2023-05-19T06:27:25.181Z,98334.26
2023-05-19T06:29:56.428Z,98340.92
2023-05-19T06:32:29.743Z,98342.45
2023-05-19T06:35:00.925Z,98346.29
2023-05-19T06:37:32.018Z,98344.98
2023-05-19T06:40:03.953Z,98347.70
2023-05-19T06:42:35.333Z,98356.59
2023-05-19T06:45:06.968Z,98356.43
2023-05-19T06:47:37.937Z,98356.95
2023-05-19T06:50:10.182Z,98358.48
2023-05-19T06:52:41.367Z,98361.33
2023-05-19T06:55:14.009Z,98362.14
2023-05-19T06:57:45.602Z,98363.09
2023-05-19T07:00:19.972Z,98366.81
2023-05-19T07:02:53.323Z,98368.92
2023-05-19T07:05:25.137Z,98366.65
2023-05-19T07:07:56.224Z,98370.58
2023-05-19T07:10:25.634Z,98376.00
2023-05-19T07:12:55.061Z,98370.67
2023-05-19T07:15:26.382Z,98372.95
2023-05-19T07:17:57.471Z,98384.61
2023-05-19T07:20:28.760Z,98378.52
2023-05-19T07:22:59.787Z,98375.98
2023-05-19T07:25:31.217Z,98381.27
2023-05-19T07:28:02.642Z,98385.84
2023-05-19T07:30:34.397Z,98390.38
2023-05-19T07:33:05.736Z,98387.41
2023-05-19T07:35:36.910Z,98387.53
2023-05-19T07:38:08.407Z,98388.44
2023-05-19T07:40:39.372Z,98383.39
2023-05-19T07:43:11.386Z,98384.33
2023-05-19T07:45:42.537Z,98383.17
2023-05-19T07:48:13.892Z,98387.81
2023-05-19T07:50:45.232Z,98386.36
2023-05-19T07:53:16.739Z,98389.86
2023-05-19T07:55:49.594Z,98387.80
2023-05-19T07:58:20.804Z,98397.38
2023-05-19T08:00:51.880Z,98392.34
2023-05-19T08:03:23.849Z,98398.73
2023-05-19T08:05:55.594Z,98399.17
2023-05-19T08:08:27.016Z,98391.41
2023-05-19T08:10:57.921Z,98389.11
2023-05-19T08:13:28.997Z,98385.80
2023-05-19T08:16:00.811Z,98386.70
2023-05-19T08:18:32.154Z,98377.77
2023-05-19T08:21:03.647Z,98376.48
2023-05-19T08:23:34.782Z,98377.21
2023-05-19T08:26:05.966Z,98373.99
2023-05-19T08:28:36.903Z,98374.63
2023-05-19T08:31:08.136Z,98372.09
2023-05-19T08:33:39.206Z,98369.69
2023-05-19T08:36:09.070Z,98374.65
2023-05-19T08:38:40.140Z,98374.95
2023-05-19T08:41:11.353Z,98378.08
2023-05-19T08:43:42.578Z,98377.08
2023-05-19T08:46:16.990Z,98372.20
2023-05-19T08:48:55.246Z,98365.48
2023-05-19T08:51:34.782Z,98368.10
2023-05-19T08:54:13.953Z,98366.32
2023-05-19T08:56:46.616Z,98362.02
2023-05-19T08:59:18.404Z,98355.00
2023-05-19T09:01:50.157Z,98351.02
2023-05-19T09:04:22.338Z,98357.22
2023-05-19T09:06:53.633Z,98357.31
2023-05-19T09:09:24.915Z,98358.00
2023-05-19T09:11:56.350Z,98359.42
2023-05-19T09:14:27.886Z,98356.55
2023-05-19T09:16:59.031Z,98353.73
2023-05-19T09:19:31.532Z,98352.65
2023-05-19T09:22:04.789Z,98354.27
2023-05-19T09:24:37.970Z,98348.40
2023-05-19T09:27:09.304Z,98353.82
2023-05-19T09:29:40.418Z,98353.86
2023-05-19T09:32:11.563Z,98355.50
2023-05-19T09:34:44.393Z,98356.48
2023-05-19T09:37:16.946Z,98360.55
2023-05-19T09:39:52.153Z,98352.02
2023-05-19T09:42:29.900Z,98348.29
2023-05-19T09:45:04.983Z,98349.46
2023-05-19T09:47:38.748Z,98349.67
2023-05-19T09:50:12.515Z,98349.20
2023-05-19T09:52:45.859Z,98350.98
2023-05-19T09:55:18.115Z,98347.80
2023-05-19T09:57:49.192Z,98343.11
2023-05-19T10:00:21.524Z,98339.69
2023-05-19T10:02:53.024Z,98336.70
2023-05-19T10:05:24.928Z,98335.98
2023-05-19T10:07:56.861Z,98330.31
2023-05-19T10:10:28.891Z,98326.08
2023-05-19T10:13:04.147Z,98323.23
2023-05-19T10:15:46.687Z,98329.46
2023-05-19T10:18:29.931Z,98327.19
2023-05-19T10:21:02.347Z,98322.23
2023-05-19T10:23:33.836Z,98327.35
2023-05-19T10:26:07.804Z,98329.23
2023-05-19T10:28:42.191Z,98324.19
2023-05-19T10:31:19.738Z,98321.17
2023-05-19T10:34:08.919Z,98322.92
2023-05-19T10:36:48.864Z,98321.95
2023-05-19T10:39:24.094Z,98321.59
2023-05-19T10:42:05.244Z,98324.47
2023-05-19T10:44:48.136Z,98323.63
2023-05-19T10:47:26.373Z,98330.23
2023-05-19T10:49:57.908Z,98327.82
2023-05-19T10:52:33.109Z,98327.09
2023-05-19T10:55:05.366Z,98327.15
2023-05-19T10:57:36.831Z,98323.80
2023-05-19T11:00:31.783Z,98330.77
2023-05-19T11:03:17.799Z,98330.85
2023-05-19T11:05:51.075Z,98331.63
2023-05-19T11:08:36.549Z,98331.05
2023-05-19T11:11:17.610Z,98337.27
2023-05-19T11:13:55.139Z,98337.30
2023-05-19T11:16:33.658Z,98333.64
2023-05-19T11:19:07.450Z,98334.84
2023-05-19T11:21:55.028Z,98335.09
2023-05-19T11:24:45.919Z,98336.02
2023-05-19T11:27:28.660Z,98332.21
2023-05-19T11:30:02.008Z,98330.19
2023-05-19T11:32:35.887Z,98331.91
2023-05-19T11:35:08.292Z,98331.77
2023-05-19T11:37:40.545Z,98326.55
2023-05-19T11:40:14.496Z,98326.24
2023-05-19T11:42:45.711Z,98322.20
2023-05-19T11:45:16.655Z,98321.67
2023-05-19T11:48:01.227Z,98322.31
2023-05-19T11:50:36.942Z,98320.89
2023-05-19T11:53:08.209Z,98318.88
2023-05-19T11:55:46.687Z,98315.50
2023-05-19T11:58:18.314Z,98322.06
2023-05-19T12:00:49.187Z,98324.52
2023-05-19T12:03:26.707Z,98324.48
2023-05-19T12:05:58.059Z,98323.40
2023-05-19T12:08:30.622Z,98321.63
2023-05-19T12:11:02.138Z,98319.27
2023-05-19T12:13:33.289Z,98320.55
2023-05-19T12:16:06.823Z,98321.73
2023-05-19T12:18:42.100Z,98328.34
2023-05-19T12:21:13.348Z,98328.77
2023-05-19T12:23:44.478Z,98324.61
2023-05-19T12:26:16.344Z,98322.20
2023-05-19T12:28:49.234Z,98329.40
2023-05-19T12:31:21.257Z,98323.16
2023-05-19T12:33:53.198Z,98328.18
2023-05-19T12:36:27.141Z,98330.08
2023-05-19T12:38:58.812Z,98327.26
2023-05-19T12:41:30.358Z,98322.59
2023-05-19T12:44:01.588Z,98323.84
2023-05-19T12:46:35.288Z,98318.64
2023-05-19T12:49:06.480Z,98322.69
2023-05-19T12:51:37.779Z,98326.33
2023-05-19T12:54:09.362Z,98324.98
2023-05-19T12:56:40.234Z,98328.73
2023-05-19T12:59:11.355Z,98328.60
2023-05-19T13:01:42.474Z,98330.70
2023-05-19T13:04:13.679Z,98331.76
2023-05-19T13:06:45.088Z,98332.15
2023-05-19T13:09:17.394Z,98329.22
2023-05-19T13:11:51.263Z,98331.16
2023-05-19T13:14:23.297Z,98327.02
2023-05-19T13:16:54.445Z,98323.68
2023-05-19T13:19:26.248Z,98324.80
2023-05-19T13:21:57.565Z,98326.38
2023-05-19T13:24:28.782Z,98314.21
2023-05-19T13:26:59.852Z,98322.61
2023-05-19T13:29:31.677Z,98320.83
2023-05-19T13:32:02.564Z,98317.06
2023-05-19T13:34:33.866Z,98320.08
2023-05-19T13:37:06.194Z,98320.85
2023-05-19T13:39:38.964Z,98322.15
2023-05-19T13:42:10.033Z,98320.93
2023-05-19T13:44:41.083Z,98323.98
2023-05-19T13:47:12.606Z,98324.04
2023-05-19T13:49:43.871Z,98327.71
2023-05-19T13:52:33.580Z,98325.38
2023-05-19T13:55:05.937Z,98322.59
2023-05-19T13:57:38.340Z,98323.52
2023-05-19T14:00:11.867Z,98320.07
2023-05-19T14:02:43.144Z,98320.84
2023-05-19T14:05:14.656Z,98320.27
2023-05-19T14:07:49.626Z,98324.88
2023-05-19T14:10:20.605Z,98319.59
2023-05-19T14:15:30.062Z,98313.90
2023-05-19T14:18:01.351Z,98313.02
2023-05-19T14:20:32.882Z,98307.73
2023-05-19T14:23:04.091Z,98310.58
2023-05-19T14:25:35.214Z,98312.11
2023-05-19T14:28:06.810Z,98317.84
2023-05-19T14:30:38.076Z,98318.61
2023-05-19T14:33:09.585Z,98321.31
2023-05-19T14:35:40.733Z,98324.16
2023-05-19T14:38:11.930Z,98320.52
2023-05-19T14:40:43.162Z,98318.23
2023-05-19T14:43:14.287Z,98318.63
2023-05-19T14:45:45.431Z,98314.58
2023-05-19T14:48:16.537Z,98316.80
2023-05-19T14:50:49.444Z,98311.71
2023-05-19T14:53:20.799Z,98315.27
2023-05-19T14:55:52.306Z,98304.21
2023-05-19T14:58:28.825Z,98306.30
2023-05-19T15:01:01.577Z,98314.53
2023-05-19T15:03:32.739Z,98312.15
2023-05-19T15:06:03.804Z,98314.92
2023-05-19T15:08:37.704Z,98318.70
2023-05-19T15:11:08.982Z,98315.63
2023-05-19T15:13:39.991Z,98316.63
2023-05-19T15:16:17.382Z,98323.30
2023-05-19T15:18:49.149Z,98325.01
2023-05-19T15:21:20.469Z,98325.59
2023-05-19T15:23:51.751Z,98331.86
2023-05-19T15:26:23.282Z,98331.16
2023-05-19T15:28:56.107Z,98332.15
2023-05-19T15:31:27.890Z,98331.63
2023-05-19T15:33:59.328Z,98330.80
2023-05-19T15:36:30.275Z,98328.34
2023-05-19T15:39:01.394Z,98330.61
2023-05-19T15:41:33.810Z,98323.66
2023-05-19T15:44:06.754Z,98323.44
2023-05-19T15:46:37.669Z,98320.72
2023-05-19T15:49:09.226Z,98317.89
2023-05-19T15:51:44.565Z,98315.83
2023-05-19T15:54:16.046Z,98316.05
2023-05-19T15:56:46.994Z,98312.77
2023-05-19T15:59:18.101Z,98314.29
2023-05-19T16:01:50.575Z,98314.89
2023-05-19T16:04:23.845Z,98308.16
2023-05-19T16:06:54.806Z,98314.58
2023-05-19T16:09:26.543Z,98315.61
2023-05-19T16:11:57.654Z,98316.11
2023-05-19T16:14:31.176Z,98312.50
2023-05-19T16:17:02.140Z,98312.83
2023-05-19T16:19:33.798Z,98317.15
2023-05-19T16:22:05.203Z,98312.56
2023-05-19T16:24:36.301Z,98314.47
2023-05-19T16:27:07.918Z,98317.89
2023-05-19T16:29:39.443Z,98311.81
2023-05-19T16:32:11.290Z,98316.65
2023-05-19T16:34:42.393Z,98324.55
2023-05-19T16:37:13.474Z,98323.98
2023-05-19T16:39:45.011Z,98331.50
2023-05-19T16:42:16.099Z,98327.41
2023-05-19T16:44:47.100Z,98322.39
2023-05-19T16:47:18.621Z,98326.02
2023-05-19T16:49:49.979Z,98326.61
2023-05-19T16:52:21.320Z,98327.73
2023-05-19T16:54:52.794Z,98327.13
2023-05-19T16:57:24.111Z,98330.27
2023-05-19T16:59:55.183Z,98332.30
2023-05-19T17:02:26.279Z,98331.36
2023-05-19T17:04:57.675Z,98328.71
2023-05-19T17:07:29.216Z,98321.41
2023-05-19T17:10:00.398Z,98317.67
2023-05-19T17:12:31.322Z,98322.69
2023-05-19T17:15:02.480Z,98319.52
2023-05-19T17:17:33.949Z,98322.46
2023-05-19T17:20:05.529Z,98324.48
2023-05-19T17:22:37.063Z,98324.91
2023-05-19T17:25:09.948Z,98323.79
2023-05-19T17:27:41.099Z,98326.64
2023-05-19T17:30:14.113Z,98328.70
2023-05-19T17:32:45.677Z,98332.42
2023-05-19T17:35:17.117Z,98337.20
2023-05-19T17:37:48.565Z,98344.38
2023-05-19T17:40:20.508Z,98345.95
2023-05-19T17:42:51.701Z,98347.50
2023-05-19T17:45:23.032Z,98349.58
2023-05-19T17:47:54.228Z,98350.53
2023-05-19T17:50:25.597Z,98348.66
2023-05-19T17:52:58.362Z,98348.27
2023-05-19T17:55:31.629Z,98346.59
2023-05-19T17:58:03.818Z,98345.23
2023-05-19T18:00:35.884Z,98342.01
2023-05-19T18:03:08.320Z,98345.19
2023-05-19T18:05:43.236Z,98347.77
2023-05-19T18:08:15.154Z,98351.19
2023-05-19T18:10:48.689Z,98350.37
2023-05-19T18:13:19.810Z,98355.81
2023-05-19T18:15:52.757Z,98356.38
2023-05-19T18:18:23.831Z,98348.79
2023-05-19T18:20:54.999Z,98343.45
2023-05-19T18:23:26.591Z,98347.55
2023-05-19T18:25:57.668Z,98345.42
2023-05-19T18:28:29.787Z,98343.40
2023-05-19T18:31:05.100Z,98345.83
2023-05-19T18:33:36.304Z,98338.16
2023-05-19T18:36:08.980Z,98336.94
2023-05-19T18:38:40.654Z,98339.95
2023-05-19T18:41:11.687Z,98339.83
2023-05-19T18:43:42.693Z,98341.54
2023-05-19T18:46:14.107Z,98342.27
2023-05-19T18:48:45.292Z,98341.77
2023-05-19T18:51:18.625Z,98346.35
2023-05-19T18:53:50.951Z,98347.42
2023-05-19T18:56:27.264Z,98347.45
2023-05-19T18:58:58.318Z,98351.84
2023-05-19T19:01:29.619Z,98352.68
2023-05-19T19:04:01.118Z,98355.55
2023-05-19T19:06:32.387Z,98359.08
2023-05-19T19:09:03.480Z,98362.36
2023-05-19T19:11:34.596Z,98361.45
2023-05-19T19:14:06.045Z,98363.43
2023-05-19T19:16:37.844Z,98363.55
2023-05-19T19:19:09.996Z,98364.02
2023-05-19T19:21:41.991Z,98369.11
2023-05-19T19:24:14.126Z,98374.35
2023-05-19T19:26:45.651Z,98374.42
2023-05-19T19:29:18.235Z,98379.63
2023-05-19T19:31:49.589Z,98378.16
2023-05-19T19:34:22.459Z,98376.19
2023-05-19T19:36:53.624Z,98379.20
2023-05-19T19:39:24.795Z,98376.52
2023-05-19T19:41:56.232Z,98374.35
2023-05-19T19:44:27.306Z,98380.70
2023-05-19T19:46:58.247Z,98378.66
2023-05-19T19:49:29.776Z,98383.61
2023-05-19T19:52:00.999Z,98380.02
2023-05-19T19:54:32.773Z,98378.60
2023-05-19T19:57:03.823Z,98381.62
2023-05-19T19:59:34.988Z,98382.58
2023-05-19T20:02:06.046Z,98390.09
2023-05-19T20:04:37.705Z,98388.30
2023-05-19T20:07:09.218Z,98387.98
2023-05-19T20:09:40.596Z,98387.36
2023-05-19T20:12:11.946Z,98390.62
2023-05-19T20:14:43.383Z,98391.23
2023-05-19T20:17:14.641Z,98390.25
2023-05-19T20:19:45.972Z,98389.91
2023-05-19T20:22:17.586Z,98391.27
2023-05-19T20:24:48.698Z,98390.15
2023-05-19T20:27:19.673Z,98386.48
2023-05-19T20:29:51.057Z,98389.98
2023-05-19T20:32:22.236Z,98390.73
2023-05-19T20:34:53.217Z,98386.83
2023-05-19T20:37:24.963Z,98385.62
2023-05-19T20:39:56.103Z,98388.09
2023-05-19T20:42:25.390Z,98384.49
2023-05-19T20:44:56.540Z,98386.74
2023-05-19T20:47:30.312Z,98389.30
2023-05-19T20:50:01.692Z,98389.77
2023-05-19T20:52:34.354Z,98388.17
2023-05-19T20:55:05.852Z,98388.80
2023-05-19T20:57:37.360Z,98382.79
2023-05-19T21:00:10.984Z,98381.50
2023-05-19T21:02:42.823Z,98379.33
2023-05-19T21:05:14.944Z,98376.54
2023-05-19T21:07:46.256Z,98372.81
2023-05-19T21:10:18.053Z,98370.50
2023-05-19T21:12:49.140Z,98367.23
2023-05-19T21:15:21.425Z,98368.89
2023-05-19T21:17:52.678Z,98363.70
2023-05-19T21:20:24.258Z,98361.44
2023-05-19T21:22:55.461Z,98364.63
2023-05-19T21:25:26.747Z,98360.65
2023-05-19T21:27:58.266Z,98361.48
2023-05-19T21:30:29.204Z,98356.70
2023-05-19T21:32:58.690Z,98360.61
2023-05-19T21:35:28.202Z,98356.79
2023-05-19T21:38:03.906Z,98356.98
2023-05-19T21:40:40.182Z,98350.57
2023-05-19T21:43:12.673Z,98350.27
2023-05-19T21:45:43.847Z,98349.77
2023-05-19T21:48:15.184Z,98350.83
2023-05-19T21:50:46.432Z,98349.98
2023-05-19T21:53:17.577Z,98353.99
2023-05-19T21:55:49.787Z,98355.74
2023-05-19T21:58:21.220Z,98357.60
2023-05-19T22:00:54.552Z,98357.75
2023-05-19T22:03:27.173Z,98360.36
2023-05-19T22:05:58.851Z,98367.08
2023-05-19T22:08:30.362Z,98369.24
2023-05-19T22:11:01.978Z,98366.19
2023-05-19T22:13:33.996Z,98360.79
2023-05-19T22:16:05.651Z,98359.73
2023-05-19T22:18:36.942Z,98353.58
2023-05-19T22:21:08.305Z,98350.59
2023-05-19T22:23:39.261Z,98348.80
2023-05-19T22:26:10.296Z,98345.36
2023-05-19T22:28:39.673Z,98348.62
2023-05-19T22:31:09.321Z,98340.59
2023-05-19T22:33:40.449Z,98340.68
2023-05-19T22:36:11.700Z,98340.20
2023-05-19T22:38:42.919Z,98335.69
2023-05-19T22:41:14.067Z,98335.80
2023-05-19T22:43:45.198Z,98330.83
2023-05-19T22:46:16.380Z,98331.04
2023-05-19T22:48:47.394Z,98331.10
2023-05-19T22:51:16.867Z,98332.61
2023-05-19T22:53:48.565Z,98328.27
2023-05-19T22:56:19.669Z,98328.10
2023-05-19T22:58:50.963Z,98331.31
2023-05-19T23:01:22.045Z,98327.79
2023-05-19T23:03:51.539Z,98322.26
2023-05-19T23:06:22.706Z,98318.40
2023-05-19T23:09:05.278Z,98315.61
2023-05-19T23:11:36.852Z,98312.77
2023-05-19T23:14:07.713Z,98311.80
2023-05-19T23:16:39.935Z,98313.03
2023-05-19T23:19:11.209Z,98307.73
2023-05-19T23:21:42.260Z,98302.13
2023-05-19T23:24:13.434Z,98301.55
2023-05-19T23:26:44.568Z,98301.77
2023-05-19T23:29:16.314Z,98302.77
2023-05-19T23:31:47.411Z,98302.96
2023-05-19T23:34:18.593Z,98305.61
2023-05-19T23:36:49.911Z,98303.08
2023-05-19T23:39:22.022Z,98300.80
2023-05-19T23:41:53.208Z,98300.50
2023-05-19T23:44:24.162Z,98300.56
2023-05-19T23:46:55.559Z,98298.87
2023-05-19T23:49:27.103Z,98296.86
2023-05-19T23:51:58.277Z,98291.33
2023-05-19T23:54:30.386Z,98294.15
2023-05-19T23:57:02.509Z,98294.03
2023-05-19T23:59:33.524Z,98294.66
